createdAt,value
2022-09-15T00:01:02.049Z,99225.56
2022-09-15T00:04:05.790Z,99215.25
2022-09-15T00:07:08.473Z,99206.50
2022-09-15T00:10:11.825Z,99193.87
2022-09-15T00:13:15.724Z,99182.00
2022-09-15T00:16:20.521Z,99165.19
2022-09-15T00:19:23.522Z,99131.81
2022-09-15T00:22:28.278Z,99137.81
2022-09-15T00:25:31.152Z,99126.81
2022-09-15T00:28:34.837Z,99135.25
2022-09-15T00:31:37.623Z,99160.44
2022-09-15T00:34:40.568Z,99181.75
2022-09-15T00:37:43.347Z,99199.50
2022-09-15T00:40:53.302Z,99227.25
2022-09-15T00:43:57.486Z,99235.84
2022-09-15T00:47:18.767Z,99245.03
2022-09-15T00:50:23.147Z,99251.88
2022-09-15T00:53:27.503Z,99258.25
2022-09-15T00:56:33.281Z,99263.88
2022-09-15T00:59:40.156Z,99264.50
2022-09-15T01:02:44.767Z,99252.38
2022-09-15T01:05:54.610Z,99259.44
2022-09-15T01:09:14.353Z,99255.09
2022-09-15T01:12:18.520Z,99249.38
2022-09-15T01:15:25.855Z,99256.56
2022-09-15T01:18:36.952Z,99256.47
2022-09-15T01:21:58.777Z,99254.44
2022-09-15T01:25:10.648Z,99255.25
2022-09-15T01:28:36.031Z,99258.31
2022-09-15T01:32:13.390Z,99249.97
2022-09-15T01:35:22.415Z,99257.34
2022-09-15T01:39:07.147Z,99251.31
2022-09-15T01:42:15.191Z,99248.09
2022-09-15T01:45:23.781Z,99253.47
2022-09-15T01:48:29.796Z,99261.31
2022-09-15T01:51:34.605Z,99266.56
2022-09-15T01:54:45.881Z,99262.97
2022-09-15T01:57:50.549Z,99254.84
2022-09-15T02:01:03.796Z,99255.88
2022-09-15T02:04:15.801Z,99258.16
2022-09-15T02:07:35.618Z,99257.97
2022-09-15T02:10:38.404Z,99263.78
2022-09-15T02:14:11.442Z,99259.69
2022-09-15T02:17:18.885Z,99268.22
2022-09-15T02:20:34.317Z,99262.69
2022-09-15T02:23:43.729Z,99255.84
2022-09-15T02:26:49.727Z,99263.31
2022-09-15T02:29:59.048Z,99260.81
2022-09-15T02:33:09.064Z,99267.75
2022-09-15T02:36:17.183Z,99262.88
2022-09-15T02:39:26.182Z,99263.00
2022-09-15T02:42:33.019Z,99271.00
2022-09-15T02:45:36.237Z,99278.50
2022-09-15T02:48:39.493Z,99279.97
2022-09-15T02:51:42.491Z,99285.78
2022-09-15T02:54:46.022Z,99280.94
2022-09-15T02:57:48.832Z,99282.53
2022-09-15T03:00:54.223Z,99275.78
2022-09-15T03:03:57.352Z,99271.94
2022-09-15T03:07:00.511Z,99263.59
2022-09-15T03:10:05.473Z,99268.16
2022-09-15T03:13:08.687Z,99254.69
2022-09-15T03:16:14.553Z,99264.34
2022-09-15T03:19:17.552Z,99255.75
2022-09-15T03:22:20.426Z,99266.28
2022-09-15T03:25:26.779Z,99274.59
2022-09-15T03:28:30.193Z,99268.66
2022-09-15T03:31:33.280Z,99268.16
2022-09-15T03:34:36.245Z,99276.03
2022-09-15T03:37:39.479Z,99267.91
2022-09-15T03:40:43.308Z,99264.44
2022-09-15T03:43:46.484Z,99262.28
2022-09-15T03:46:49.504Z,99263.28
2022-09-15T03:49:53.177Z,99264.06
2022-09-15T03:52:58.803Z,99264.25
2022-09-15T03:56:15.347Z,99261.72
2022-09-15T03:59:19.311Z,99259.94
2022-09-15T04:02:22.345Z,99265.50
2022-09-15T04:05:25.874Z,99262.50
2022-09-15T04:08:28.621Z,99262.19
2022-09-15T04:11:32.633Z,99281.84
2022-09-15T04:14:35.518Z,99287.47
2022-09-15T04:17:38.419Z,99288.34
2022-09-15T04:20:41.645Z,99293.19
2022-09-15T04:23:45.911Z,99293.78
2022-09-15T04:26:49.017Z,99287.53
2022-09-15T04:29:52.932Z,99285.59
2022-09-15T04:32:55.820Z,99287.22
2022-09-15T04:36:04.249Z,99295.88
2022-09-15T04:39:07.010Z,99306.87
2022-09-15T04:42:10.212Z,99314.09
2022-09-15T04:45:13.140Z,99306.94
2022-09-15T04:48:16.167Z,99302.81
2022-09-15T04:51:21.668Z,99298.25
2022-09-15T04:54:24.638Z,99301.31
2022-09-15T04:57:27.271Z,99306.72
2022-09-15T05:00:32.135Z,99292.53
2022-09-15T05:03:37.162Z,99287.44
2022-09-15T05:06:40.201Z,99287.50
2022-09-15T05:09:43.066Z,99285.13
2022-09-15T05:12:46.526Z,99284.31
2022-09-15T05:15:49.534Z,99297.47
2022-09-15T05:18:55.155Z,99294.22
2022-09-15T05:21:58.008Z,99308.19
2022-09-15T05:25:01.150Z,99301.13
2022-09-15T05:28:03.981Z,99334.12
2022-09-15T05:31:13.119Z,99342.44
2022-09-15T05:34:16.093Z,99332.19
2022-09-15T05:37:19.890Z,99339.41
2022-09-15T05:40:22.978Z,99350.44
2022-09-15T05:43:25.906Z,99352.53
2022-09-15T05:46:31.949Z,99365.22
2022-09-15T05:49:35.345Z,99349.06
2022-09-15T05:52:38.209Z,99363.88
2022-09-15T05:55:41.548Z,99366.38
2022-09-15T05:58:46.954Z,99352.22
2022-09-15T06:01:49.918Z,99355.81
2022-09-15T06:04:52.999Z,99339.69
2022-09-15T06:07:56.907Z,99336.78
2022-09-15T06:11:08.338Z,99343.28
2022-09-15T06:14:13.398Z,99341.19
2022-09-15T06:17:20.677Z,99362.25
2022-09-15T06:20:25.482Z,99348.53
2022-09-15T06:23:28.636Z,99346.66
2022-09-15T06:26:31.539Z,99351.28
2022-09-15T06:29:35.930Z,99353.50
2022-09-15T06:32:39.113Z,99365.19
2022-09-15T06:35:42.403Z,99378.53
2022-09-15T06:38:45.826Z,99380.22
2022-09-15T06:42:05.911Z,99379.50
2022-09-15T06:45:09.388Z,99378.75
2022-09-15T06:48:23.918Z,99392.78
2022-09-15T06:51:35.376Z,99382.16
2022-09-15T06:54:38.700Z,99384.25
2022-09-15T06:57:41.333Z,99387.62
2022-09-15T07:00:44.610Z,99397.50
2022-09-15T07:03:47.487Z,99395.22
2022-09-15T07:06:51.017Z,99388.94
2022-09-15T07:09:53.762Z,99391.63
2022-09-15T07:12:56.858Z,99393.63
2022-09-15T07:16:02.819Z,99401.03
2022-09-15T07:19:06.245Z,99419.78
2022-09-15T07:22:08.839Z,99419.78
2022-09-15T07:25:12.049Z,99412.94
2022-09-15T07:28:15.815Z,99416.16
2022-09-15T07:31:21.054Z,99413.56
2022-09-15T07:34:23.774Z,99413.94
2022-09-15T07:37:26.701Z,99424.09
2022-09-15T07:40:29.751Z,99426.75
2022-09-15T07:43:33.035Z,99435.25
2022-09-15T07:46:36.426Z,99430.06
2022-09-15T07:49:39.793Z,99423.72
2022-09-15T07:52:42.635Z,99429.94
2022-09-15T07:55:45.559Z,99422.81
2022-09-15T07:58:49.239Z,99416.94
2022-09-15T08:01:52.445Z,99432.00
2022-09-15T08:04:56.526Z,99429.78
2022-09-15T08:07:59.378Z,99431.31
2022-09-15T08:11:06.957Z,99431.19
2022-09-15T08:14:09.821Z,99424.94
2022-09-15T08:17:12.741Z,99428.78
2022-09-15T08:20:15.645Z,99432.84
2022-09-15T08:23:18.778Z,99428.16
2022-09-15T08:26:21.807Z,99441.12
2022-09-15T08:29:24.836Z,99435.53
2022-09-15T08:32:27.564Z,99427.22
2022-09-15T08:35:32.430Z,99425.09
2022-09-15T08:38:35.346Z,99429.34
2022-09-15T08:41:43.716Z,99412.72
2022-09-15T08:44:55.608Z,99402.38
2022-09-15T08:48:04.394Z,99409.66
2022-09-15T08:51:15.000Z,99411.75
2022-09-15T08:54:24.641Z,99414.41
2022-09-15T08:57:27.794Z,99405.38
2022-09-15T09:00:32.661Z,99407.53
2022-09-15T09:04:07.118Z,99395.97
2022-09-15T09:07:35.035Z,99385.06
2022-09-15T09:11:02.944Z,99377.34
2022-09-15T09:14:24.640Z,99372.88
2022-09-15T09:17:27.316Z,99379.28
2022-09-15T09:20:45.889Z,99374.84
2022-09-15T09:24:16.931Z,99374.59
2022-09-15T09:27:24.881Z,99356.38
2022-09-15T09:30:32.810Z,99352.19
2022-09-15T09:33:48.062Z,99343.00
2022-09-15T09:37:09.125Z,99352.41
2022-09-15T09:40:14.721Z,99355.19
2022-09-15T09:43:17.954Z,99361.75
2022-09-15T09:46:23.295Z,99352.59
2022-09-15T09:49:34.290Z,99350.03
2022-09-15T09:52:39.447Z,99351.06
2022-09-15T09:55:42.338Z,99345.19
2022-09-15T09:58:46.111Z,99340.94
2022-09-15T10:02:10.899Z,99332.44
2022-09-15T10:05:19.593Z,99339.06
2022-09-15T10:08:22.270Z,99334.75
2022-09-15T10:11:46.715Z,99327.56
2022-09-15T10:14:53.316Z,99311.66
2022-09-15T10:17:57.073Z,99316.94
2022-09-15T10:21:02.558Z,99303.59
2022-09-15T10:24:34.676Z,99298.06
2022-09-15T10:27:37.436Z,99278.81
2022-09-15T10:31:01.910Z,99271.38
2022-09-15T10:34:30.423Z,99270.37
2022-09-15T10:37:48.628Z,99272.72
2022-09-15T10:41:31.780Z,99273.91
2022-09-15T10:44:52.871Z,99274.25
2022-09-15T10:48:16.837Z,99275.72
2022-09-15T10:51:57.872Z,99287.94
2022-09-15T10:55:36.757Z,99283.97
2022-09-15T10:59:03.800Z,99280.72
2022-09-15T11:02:32.696Z,99278.50
2022-09-15T11:06:13.482Z,99274.50
2022-09-15T11:09:25.993Z,99273.56
2022-09-15T11:12:40.332Z,99275.41
2022-09-15T11:15:56.753Z,99272.03
2022-09-15T11:19:18.036Z,99264.47
2022-09-15T11:22:30.097Z,99271.84
2022-09-15T11:25:40.570Z,99268.56
2022-09-15T11:28:50.315Z,99272.19
2022-09-15T11:35:45.065Z,99266.91
2022-09-15T11:39:17.890Z,99260.53
2022-09-15T11:42:32.169Z,99256.91
2022-09-15T11:45:41.641Z,99258.59
2022-09-15T11:49:16.908Z,99239.37
2022-09-15T11:53:00.338Z,99231.44
2022-09-15T11:56:24.392Z,99214.81
2022-09-15T11:59:46.911Z,99202.94
2022-09-15T12:03:22.338Z,99189.31
2022-09-15T12:06:35.083Z,99190.47
2022-09-15T12:09:38.705Z,99203.97
2022-09-15T12:12:44.773Z,99205.06
2022-09-15T12:15:49.703Z,99207.69
2022-09-15T12:19:19.040Z,99213.25
2022-09-15T12:22:43.480Z,99217.94
2022-09-15T12:26:05.031Z,99203.97
2022-09-15T12:29:26.200Z,99198.94
2022-09-15T12:32:34.994Z,99190.34
2022-09-15T12:35:38.228Z,99195.53
2022-09-15T12:38:48.200Z,99190.19
2022-09-15T12:41:52.905Z,99184.56
2022-09-15T12:45:02.045Z,99177.25
2022-09-15T12:48:18.760Z,99165.78
2022-09-15T12:51:26.234Z,99172.75
2022-09-15T12:54:33.163Z,99167.63
2022-09-15T12:57:37.925Z,99156.28
2022-09-15T13:01:00.603Z,99162.47
2022-09-15T13:04:06.226Z,99195.56
2022-09-15T13:07:15.448Z,99207.56
2022-09-15T13:10:27.797Z,99195.72
2022-09-15T13:13:45.427Z,99217.97
2022-09-15T13:16:54.165Z,99219.31
2022-09-15T13:20:02.026Z,99220.53
2022-09-15T13:23:09.156Z,99209.69
2022-09-15T13:26:17.824Z,99209.63
2022-09-15T13:29:23.037Z,99216.06
2022-09-15T13:32:44.427Z,99195.13
2022-09-15T13:36:08.487Z,99189.12
2022-09-15T13:39:45.549Z,99211.13
2022-09-15T13:43:10.957Z,99241.06
2022-09-15T13:46:37.691Z,99229.69
2022-09-15T13:50:25.237Z,99213.06
2022-09-15T13:53:35.096Z,99228.09
2022-09-15T13:56:39.958Z,99210.38
2022-09-15T13:59:42.524Z,99205.41
2022-09-15T14:05:56.706Z,99217.56
2022-09-15T14:09:06.223Z,99191.91
2022-09-15T14:12:12.125Z,99205.69
2022-09-15T14:15:21.020Z,99233.97
2022-09-15T14:18:23.829Z,99229.06
2022-09-15T14:21:32.202Z,99195.66
2022-09-15T14:24:40.220Z,99192.00
2022-09-15T14:27:45.618Z,99204.03
2022-09-15T14:30:48.788Z,99185.41
2022-09-15T14:33:51.434Z,99182.94
2022-09-15T14:37:00.715Z,99192.53
2022-09-15T14:40:19.372Z,99205.19
2022-09-15T14:43:25.889Z,99222.13
2022-09-15T14:46:36.731Z,99240.66
2022-09-15T14:49:39.504Z,99248.09
2022-09-15T14:53:19.205Z,99228.59
2022-09-15T14:56:30.454Z,99225.75
2022-09-15T14:59:40.494Z,99216.78
2022-09-15T15:03:06.783Z,99237.63
2022-09-15T15:06:29.354Z,99269.94
2022-09-15T15:09:39.346Z,99267.84
2022-09-15T15:12:50.371Z,99235.16
2022-09-15T15:15:53.627Z,99226.88
2022-09-15T15:18:57.225Z,99239.56
2022-09-15T15:22:12.000Z,99218.09
2022-09-15T15:25:20.316Z,99196.19
2022-09-15T15:28:37.041Z,99194.53
2022-09-15T15:31:40.370Z,99184.84
2022-09-15T15:35:16.031Z,99184.03
2022-09-15T15:38:25.272Z,99194.78
2022-09-15T15:41:31.156Z,99234.06
2022-09-15T15:44:33.624Z,99250.38
2022-09-15T15:47:37.140Z,99246.78
2022-09-15T15:50:40.000Z,99237.47
2022-09-15T15:53:42.771Z,99219.59
2022-09-15T15:56:45.493Z,99206.25
2022-09-15T15:59:48.295Z,99199.44
2022-09-15T16:02:51.694Z,99191.34
2022-09-15T16:05:58.437Z,99201.50
2022-09-15T16:09:02.164Z,99195.81
2022-09-15T16:12:05.188Z,99187.19
2022-09-15T16:15:16.984Z,99177.59
2022-09-15T16:18:20.020Z,99163.53
2022-09-15T16:21:29.831Z,99146.78
2022-09-15T16:24:33.045Z,99142.72
2022-09-15T16:27:35.414Z,99139.47
2022-09-15T16:30:38.345Z,99140.22
2022-09-15T16:33:42.644Z,99146.97
2022-09-15T16:36:45.786Z,99150.38
2022-09-15T16:39:48.275Z,99160.22
2022-09-15T16:42:51.428Z,99160.69
2022-09-15T16:45:53.958Z,99158.75
2022-09-15T16:48:57.261Z,99159.50
2022-09-15T16:51:59.727Z,99176.81
2022-09-15T16:55:02.483Z,99184.47
2022-09-15T16:58:06.189Z,99189.59
2022-09-15T17:01:20.675Z,99188.47
2022-09-15T17:04:23.068Z,99179.97
2022-09-15T17:07:25.867Z,99185.97
2022-09-15T17:10:28.441Z,99188.34
2022-09-15T17:13:33.799Z,99184.84
2022-09-15T17:16:38.279Z,99189.47
2022-09-15T17:19:41.208Z,99201.19
2022-09-15T17:22:43.661Z,99197.81
2022-09-15T17:25:52.723Z,99189.69
2022-09-15T17:28:56.340Z,99192.84
2022-09-15T17:31:59.061Z,99197.38
2022-09-15T17:35:01.894Z,99187.38
2022-09-15T17:38:06.092Z,99178.44
2022-09-15T17:41:15.371Z,99177.28
2022-09-15T17:44:18.207Z,99173.19
2022-09-15T17:47:20.615Z,99171.00
2022-09-15T17:50:25.931Z,99179.50
2022-09-15T17:53:28.739Z,99178.81
2022-09-15T17:56:31.529Z,99171.25
2022-09-15T17:59:34.031Z,99175.78
2022-09-15T18:02:38.928Z,99182.44
2022-09-15T18:05:41.562Z,99173.34
2022-09-15T18:08:44.094Z,99183.25
2022-09-15T18:11:47.079Z,99179.47
2022-09-15T18:14:49.626Z,99179.16
2022-09-15T18:17:56.424Z,99175.31
2022-09-15T18:20:59.892Z,99184.50
2022-09-15T18:24:02.748Z,99182.66
2022-09-15T18:27:05.309Z,99194.06
2022-09-15T18:30:08.821Z,99195.69
2022-09-15T18:33:15.405Z,99192.13
2022-09-15T18:36:18.110Z,99197.59
2022-09-15T18:39:20.709Z,99189.22
2022-09-15T18:42:26.227Z,99182.72
2022-09-15T18:45:31.369Z,99189.12
2022-09-15T18:48:34.092Z,99201.47
2022-09-15T18:51:51.114Z,99214.25
2022-09-15T18:54:54.713Z,99216.13
2022-09-15T18:58:00.825Z,99212.62
2022-09-15T19:01:04.835Z,99219.97
2022-09-15T19:04:07.268Z,99224.28
2022-09-15T19:07:11.453Z,99222.78
2022-09-15T19:10:14.601Z,99226.72
2022-09-15T19:13:17.389Z,99236.63
2022-09-15T19:16:22.714Z,99244.44
2022-09-15T19:19:25.837Z,99238.84
2022-09-15T19:22:28.936Z,99231.59
2022-09-15T19:25:32.492Z,99230.81
2022-09-15T19:28:35.077Z,99241.38
2022-09-15T19:31:41.851Z,99222.41
2022-09-15T19:34:47.044Z,99219.97
2022-09-15T19:37:49.754Z,99231.25
2022-09-15T19:40:52.644Z,99249.75
2022-09-15T19:43:55.388Z,99241.63
2022-09-15T19:46:58.434Z,99247.00
2022-09-15T19:50:01.681Z,99246.06
2022-09-15T19:53:04.134Z,99232.31
2022-09-15T19:56:07.629Z,99245.69
2022-09-15T19:59:10.267Z,99258.41
2022-09-15T20:02:13.422Z,99263.13
2022-09-15T20:05:16.297Z,99248.63
2022-09-15T20:08:19.309Z,99255.16
2022-09-15T20:11:22.322Z,99252.00
2022-09-15T20:14:24.788Z,99251.38
2022-09-15T20:17:27.906Z,99250.00
2022-09-15T20:20:32.302Z,99256.41
2022-09-15T20:23:36.184Z,99260.03
2022-09-15T20:26:38.693Z,99276.78
2022-09-15T20:29:41.612Z,99283.75
2022-09-15T20:32:44.044Z,99285.75
2022-09-15T20:35:46.875Z,99284.97
2022-09-15T20:38:50.419Z,99288.22
2022-09-15T20:41:53.210Z,99283.19
2022-09-15T20:44:55.681Z,99291.78
2022-09-15T20:47:58.596Z,99292.50
2022-09-15T20:51:15.699Z,99298.66
2022-09-15T20:54:18.364Z,99302.81
2022-09-15T20:57:20.901Z,99318.31
2022-09-15T21:00:26.596Z,99322.37
2022-09-15T21:03:30.378Z,99323.56
2022-09-15T21:06:34.011Z,99312.94
2022-09-15T21:09:36.505Z,99318.31
2022-09-15T21:12:39.270Z,99320.75
2022-09-15T21:15:41.784Z,99327.22
2022-09-15T21:18:45.573Z,99336.19
2022-09-15T21:21:48.244Z,99325.72
2022-09-15T21:24:51.044Z,99322.56
2022-09-15T21:27:53.612Z,99315.44
2022-09-15T21:31:04.659Z,99315.09
2022-09-15T21:34:08.032Z,99314.75
2022-09-15T21:37:10.994Z,99321.16
2022-09-15T21:40:13.630Z,99312.06
2022-09-15T21:43:19.027Z,99317.16
2022-09-15T21:46:23.653Z,99319.03
2022-09-15T21:49:26.626Z,99312.88
2022-09-15T21:52:30.973Z,99327.06
2022-09-15T21:55:36.441Z,99330.19
2022-09-15T21:58:43.040Z,99342.22
2022-09-15T22:01:46.108Z,99360.03
2022-09-15T22:04:49.041Z,99369.56
2022-09-15T22:07:51.576Z,99367.50
2022-09-15T22:10:59.762Z,99376.19
2022-09-15T22:14:04.189Z,99384.03
2022-09-15T22:17:09.823Z,99388.66
2022-09-15T22:20:13.733Z,99403.16
2022-09-15T22:23:17.639Z,99400.47
2022-09-15T22:26:28.402Z,99409.22
2022-09-15T22:29:31.834Z,99399.31
2022-09-15T22:32:34.411Z,99399.66
2022-09-15T22:35:37.239Z,99393.25
2022-09-15T22:38:39.862Z,99398.28
2022-09-15T22:41:42.691Z,99408.25
2022-09-15T22:44:45.379Z,99415.13
2022-09-15T22:47:48.275Z,99424.94
2022-09-15T22:50:51.027Z,99427.47
2022-09-15T22:53:56.651Z,99429.34
2022-09-15T22:56:59.369Z,99436.00
2022-09-15T23:00:02.434Z,99441.00
2022-09-15T23:03:09.622Z,99449.41
2022-09-15T23:06:12.474Z,99460.91
2022-09-15T23:09:15.231Z,99460.22
2022-09-15T23:12:18.064Z,99470.03
2022-09-15T23:15:20.710Z,99483.88
2022-09-15T23:18:23.606Z,99481.75
2022-09-15T23:21:26.688Z,99493.62
2022-09-15T23:24:32.066Z,99495.63
2022-09-15T23:27:34.608Z,99488.84
2022-09-15T23:30:38.692Z,99498.66
2022-09-15T23:33:42.192Z,99491.06
2022-09-15T23:36:44.951Z,99494.56
2022-09-15T23:39:47.792Z,99498.75
2022-09-15T23:42:50.585Z,99492.44
2022-09-15T23:45:53.669Z,99489.78
2022-09-15T23:48:56.535Z,99486.03
2022-09-15T23:51:59.175Z,99500.03
2022-09-15T23:55:02.389Z,99501.66
2022-09-15T23:58:05.759Z,99502.91
